sensor_id;sensor_type;location;lat;lon;timestamp;pressure;altitude;pressure_sealevel;temperature;humidity
59873;BME280;50750;51.636;4.948;2023-02-03T00:02:01;102683.30;;;10.95;65.02
59873;BME280;50750;51.636;4.948;2023-02-03T00:04:27;102688.91;;;10.94;65.02
59873;BME280;50750;51.636;4.948;2023-02-03T00:06:53;102690.14;;;10.95;65.05
59873;BME280;50750;51.636;4.948;2023-02-03T00:09:19;102692.95;;;10.94;65.01
59873;BME280;50750;51.636;4.948;2023-02-03T00:11:46;102696.80;;;10.94;65.24
59873;BME280;50750;51.636;4.948;2023-02-03T00:14:11;102702.58;;;10.93;65.06
59873;BME280;50750;51.636;4.948;2023-02-03T00:16:37;102702.40;;;10.93;65.04
59873;BME280;50750;51.636;4.948;2023-02-03T00:19:03;102702.05;;;10.92;64.98
59873;BME280;50750;51.636;4.948;2023-02-03T00:21:29;102702.59;;;10.92;64.99
59873;BME280;50750;51.636;4.948;2023-02-03T00:23:55;102712.23;;;10.92;64.96
59873;BME280;50750;51.636;4.948;2023-02-03T00:26:21;102714.15;;;10.92;64.98
59873;BME280;50750;51.636;4.948;2023-02-03T00:28:48;102723.27;;;10.93;64.99
59873;BME280;50750;51.636;4.948;2023-02-03T00:31:20;102720.45;;;10.93;64.87
59873;BME280;50750;51.636;4.948;2023-02-03T00:33:46;102713.45;;;10.94;64.97
59873;BME280;50750;51.636;4.948;2023-02-03T00:36:13;102712.39;;;10.94;64.91
59873;BME280;50750;51.636;4.948;2023-02-03T00:38:39;102721.86;;;10.95;65.09
59873;BME280;50750;51.636;4.948;2023-02-03T00:41:05;102721.15;;;10.96;65.04
59873;BME280;50750;51.636;4.948;2023-02-03T00:43:31;102715.71;;;10.96;65.10
59873;BME280;50750;51.636;4.948;2023-02-03T00:45:57;102713.44;;;10.96;65.04
59873;BME280;50750;51.636;4.948;2023-02-03T00:48:23;102720.98;;;10.96;65.08
59873;BME280;50750;51.636;4.948;2023-02-03T00:50:49;102723.08;;;10.96;65.05
59873;BME280;50750;51.636;4.948;2023-02-03T00:53:14;102732.19;;;10.95;65.16
59873;BME280;50750;51.636;4.948;2023-02-03T00:55:42;102732.89;;;10.95;65.06
59873;BME280;50750;51.636;4.948;2023-02-03T00:58:08;102738.69;;;10.93;64.89
59873;BME280;50750;51.636;4.948;2023-02-03T01:00:34;102746.58;;;10.94;65.05
59873;BME280;50750;51.636;4.948;2023-02-03T01:02:59;102754.46;;;10.94;65.13
59873;BME280;50750;51.636;4.948;2023-02-03T01:05:26;102759.02;;;10.94;65.02
59873;BME280;50750;51.636;4.948;2023-02-03T01:07:51;102760.95;;;10.95;64.95
59873;BME280;50750;51.636;4.948;2023-02-03T01:10:17;102756.91;;;10.96;65.12
59873;BME280;50750;51.636;4.948;2023-02-03T01:12:43;102751.13;;;10.97;65.06
59873;BME280;50750;51.636;4.948;2023-02-03T01:15:09;102745.52;;;10.97;64.96
59873;BME280;50750;51.636;4.948;2023-02-03T01:17:35;102723.42;;;10.98;64.96
59873;BME280;50750;51.636;4.948;2023-02-03T01:20:02;102719.58;;;10.97;64.98
59873;BME280;50750;51.636;4.948;2023-02-03T01:22:30;102726.05;;;10.98;64.91
59873;BME280;50750;51.636;4.948;2023-02-03T01:24:56;102709.76;;;10.97;64.89
59873;BME280;50750;51.636;4.948;2023-02-03T01:27:22;102718.00;;;10.97;64.98
59873;BME280;50750;51.636;4.948;2023-02-03T01:29:47;102718.17;;;10.97;64.94
59873;BME280;50750;51.636;4.948;2023-02-03T01:32:13;102718.01;;;10.97;64.85
59873;BME280;50750;51.636;4.948;2023-02-03T01:34:39;102725.55;;;10.97;64.88
59873;BME280;50750;51.636;4.948;2023-02-03T01:37:05;102724.66;;;10.96;64.84
59873;BME280;50750;51.636;4.948;2023-02-03T01:39:31;102718.70;;;10.96;64.97
59873;BME280;50750;51.636;4.948;2023-02-03T01:41:57;102712.23;;;10.96;64.99
59873;BME280;50750;51.636;4.948;2023-02-03T01:49:54;102727.80;;;10.98;65.08
59873;BME280;50750;51.636;4.948;2023-02-03T01:52:22;102721.86;;;10.99;65.00
59873;BME280;50750;51.636;4.948;2023-02-03T01:54:49;102711.16;;;10.99;64.95
59873;BME280;50750;51.636;4.948;2023-02-03T01:57:31;102698.73;;;10.99;64.96
59873;BME280;50750;51.636;4.948;2023-02-03T01:59:59;102684.87;;;10.99;64.93
59873;BME280;50750;51.636;4.948;2023-02-03T02:02:26;102681.70;;;10.99;64.94
59873;BME280;50750;51.636;4.948;2023-02-03T02:05:33;102676.81;;;10.99;65.02
59873;BME280;50750;51.636;4.948;2023-02-03T02:08:01;102682.58;;;10.99;64.96
59873;BME280;50750;51.636;4.948;2023-02-03T02:10:29;102686.09;;;10.98;64.87
59873;BME280;50750;51.636;4.948;2023-02-03T02:12:59;102701.51;;;10.98;64.92
59873;BME280;50750;51.636;4.948;2023-02-03T02:21:51;102680.30;;;10.97;64.98
59873;BME280;50750;51.636;4.948;2023-02-03T02:27:20;102684.34;;;10.99;64.82
59873;BME280;50750;51.636;4.948;2023-02-03T02:35:28;102685.73;;;11.01;64.97
59873;BME280;50750;51.636;4.948;2023-02-03T02:38:01;102693.96;;;11.01;64.88
59873;BME280;50750;51.636;4.948;2023-02-03T02:40:34;102698.35;;;11.01;64.82
59873;BME280;50750;51.636;4.948;2023-02-03T02:43:22;102701.85;;;11.01;64.84
59873;BME280;50750;51.636;4.948;2023-02-03T02:45:59;102691.69;;;11.01;64.92
59873;BME280;50750;51.636;4.948;2023-02-03T02:48:43;102689.41;;;11.00;64.96
59873;BME280;50750;51.636;4.948;2023-02-03T02:51:13;102678.90;;;11.00;65.00
59873;BME280;50750;51.636;4.948;2023-02-03T02:53:45;102674.87;;;10.99;64.89
59873;BME280;50750;51.636;4.948;2023-02-03T02:56:13;102672.60;;;10.99;65.04
59873;BME280;50750;51.636;4.948;2023-02-03T02:58:42;102666.98;;;10.99;65.10
59873;BME280;50750;51.636;4.948;2023-02-03T03:01:10;102664.89;;;10.98;64.99
59873;BME280;50750;51.636;4.948;2023-02-03T03:03:36;102674.17;;;10.99;65.07
59873;BME280;50750;51.636;4.948;2023-02-03T03:06:08;102677.67;;;11.00;64.95
59873;BME280;50750;51.636;4.948;2023-02-03T03:08:52;102677.84;;;11.01;65.09
59873;BME280;50750;51.636;4.948;2023-02-03T03:11:20;102678.19;;;11.01;65.04
59873;BME280;50750;51.636;4.948;2023-02-03T03:13:50;102675.73;;;11.01;65.10
59873;BME280;50750;51.636;4.948;2023-02-03T03:16:21;102671.89;;;11.02;65.03
59873;BME280;50750;51.636;4.948;2023-02-03T03:18:52;102668.20;;;11.02;65.11
59873;BME280;50750;51.636;4.948;2023-02-03T03:21:46;102669.95;;;11.02;64.90
59873;BME280;50750;51.636;4.948;2023-02-03T03:24:13;102676.44;;;11.02;64.95
59873;BME280;50750;51.636;4.948;2023-02-03T03:26:46;102679.59;;;11.01;64.90
59873;BME280;50750;51.636;4.948;2023-02-03T03:29:19;102674.33;;;11.01;65.10
59873;BME280;50750;51.636;4.948;2023-02-03T03:31:47;102666.62;;;11.01;65.13
59873;BME280;50750;51.636;4.948;2023-02-03T03:34:14;102666.63;;;11.00;65.10
59873;BME280;50750;51.636;4.948;2023-02-03T03:36:47;102657.33;;;11.01;65.10
59873;BME280;50750;51.636;4.948;2023-02-03T03:39:34;102651.54;;;11.01;65.18
59873;BME280;50750;51.636;4.948;2023-02-03T03:45:38;102648.39;;;11.02;65.07
59873;BME280;50750;51.636;4.948;2023-02-03T03:48:16;102652.77;;;11.02;65.08
59873;BME280;50750;51.636;4.948;2023-02-03T03:50:50;102654.35;;;11.03;65.06
59873;BME280;50750;51.636;4.948;2023-02-03T03:53:18;102655.91;;;11.03;64.94
59873;BME280;50750;51.636;4.948;2023-02-03T03:55:48;102648.21;;;11.04;65.05
59873;BME280;50750;51.636;4.948;2023-02-03T03:58:18;102653.98;;;11.04;64.96
59873;BME280;50750;51.636;4.948;2023-02-03T04:00:46;102667.85;;;11.04;64.98
59873;BME280;50750;51.636;4.948;2023-02-03T04:03:20;102672.05;;;11.03;65.04
59873;BME280;50750;51.636;4.948;2023-02-03T04:05:48;102679.95;;;11.03;65.03
59873;BME280;50750;51.636;4.948;2023-02-03T04:08:14;102670.65;;;11.03;64.94
59873;BME280;50750;51.636;4.948;2023-02-03T04:10:41;102669.61;;;11.02;64.96
59873;BME280;50750;51.636;4.948;2023-02-03T04:13:09;102678.71;;;11.02;65.11
59873;BME280;50750;51.636;4.948;2023-02-03T04:15:35;102688.89;;;11.02;65.05
59873;BME280;50750;51.636;4.948;2023-02-03T04:18:02;102691.34;;;11.03;65.03
59873;BME280;50750;51.636;4.948;2023-02-03T04:20:29;102699.39;;;11.03;64.98
59873;BME280;50750;51.636;4.948;2023-02-03T04:22:56;102696.77;;;11.04;64.98
59873;BME280;50750;51.636;4.948;2023-02-03T04:25:22;102679.94;;;11.04;65.04
59873;BME280;50750;51.636;4.948;2023-02-03T04:27:48;102682.56;;;11.04;65.03
59873;BME280;50750;51.636;4.948;2023-02-03T04:30:14;102682.91;;;11.05;65.02
59873;BME280;50750;51.636;4.948;2023-02-03T04:32:44;102694.33;;;11.05;65.08
59873;BME280;50750;51.636;4.948;2023-02-03T04:35:10;102711.67;;;11.05;64.95
59873;BME280;50750;51.636;4.948;2023-02-03T04:37:36;102700.28;;;11.05;64.98
59873;BME280;50750;51.636;4.948;2023-02-03T04:40:02;102697.82;;;11.04;64.99
59873;BME280;50750;51.636;4.948;2023-02-03T04:42:29;102695.90;;;11.04;64.93
59873;BME280;50750;51.636;4.948;2023-02-03T04:44:54;102695.89;;;11.04;65.01
59873;BME280;50750;51.636;4.948;2023-02-03T04:47:20;102689.40;;;11.03;65.08
59873;BME280;50750;51.636;4.948;2023-02-03T04:49:46;102688.35;;;11.03;65.09
59873;BME280;50750;51.636;4.948;2023-02-03T04:52:12;102690.98;;;11.04;65.01
59873;BME280;50750;51.636;4.948;2023-02-03T04:54:39;102683.27;;;11.05;65.08
59873;BME280;50750;51.636;4.948;2023-02-03T04:57:05;102682.92;;;11.05;65.04
59873;BME280;50750;51.636;4.948;2023-02-03T04:59:31;102683.61;;;11.05;65.08
59873;BME280;50750;51.636;4.948;2023-02-03T05:01:57;102675.90;;;11.06;65.10
59873;BME280;50750;51.636;4.948;2023-02-03T05:04:23;102674.67;;;11.05;65.00
59873;BME280;50750;51.636;4.948;2023-02-03T05:06:49;102669.23;;;11.06;65.06
59873;BME280;50750;51.636;4.948;2023-02-03T05:09:15;102673.27;;;11.06;65.06
59873;BME280;50750;51.636;4.948;2023-02-03T05:11:41;102665.02;;;11.06;65.08
59873;BME280;50750;51.636;4.948;2023-02-03T05:14:06;102675.55;;;11.05;65.09
59873;BME280;50750;51.636;4.948;2023-02-03T05:16:32;102685.38;;;11.05;65.15
59873;BME280;50750;51.636;4.948;2023-02-03T05:18:58;102698.88;;;11.04;65.08
59873;BME280;50750;51.636;4.948;2023-02-03T05:21:24;102700.45;;;11.04;65.09
59873;BME280;50750;51.636;4.948;2023-02-03T05:23:50;102691.67;;;11.03;65.25
59873;BME280;50750;51.636;4.948;2023-02-03T05:26:16;102696.42;;;11.03;65.23
59873;BME280;50750;51.636;4.948;2023-02-03T05:28:42;102693.09;;;11.03;65.17
59873;BME280;50750;51.636;4.948;2023-02-03T05:31:07;102701.14;;;11.04;65.16
59873;BME280;50750;51.636;4.948;2023-02-03T05:33:33;102694.14;;;11.04;65.12
59873;BME280;50750;51.636;4.948;2023-02-03T05:35:59;102709.39;;;11.04;65.20
59873;BME280;50750;51.636;4.948;2023-02-03T05:38:25;102717.10;;;11.05;65.16
59873;BME280;50750;51.636;4.948;2023-02-03T05:40:52;102708.34;;;11.05;65.04
59873;BME280;50750;51.636;4.948;2023-02-03T05:43:36;102706.05;;;11.06;65.15
59873;BME280;50750;51.636;4.948;2023-02-03T05:46:04;102702.02;;;11.05;65.10
59873;BME280;50750;51.636;4.948;2023-02-03T05:48:30;102705.00;;;11.05;65.16
59873;BME280;50750;51.636;4.948;2023-02-03T05:50:57;102703.95;;;11.05;65.28
59873;BME280;50750;51.636;4.948;2023-02-03T05:53:23;102698.16;;;11.05;65.25
59873;BME280;50750;51.636;4.948;2023-02-03T05:55:49;102702.55;;;11.05;65.20
59873;BME280;50750;51.636;4.948;2023-02-03T05:58:15;102701.50;;;11.05;65.25
59873;BME280;50750;51.636;4.948;2023-02-03T06:00:41;102699.39;;;11.04;65.26
59873;BME280;50750;51.636;4.948;2023-02-03T06:03:07;102697.12;;;11.04;65.17
59873;BME280;50750;51.636;4.948;2023-02-03T06:05:33;102685.20;;;11.04;65.23
59873;BME280;50750;51.636;4.948;2023-02-03T06:08:00;102686.96;;;11.04;65.23
59873;BME280;50750;51.636;4.948;2023-02-03T06:10:26;102686.77;;;11.05;65.12
59873;BME280;50750;51.636;4.948;2023-02-03T06:12:52;102690.10;;;11.06;65.20
59873;BME280;50750;51.636;4.948;2023-02-03T06:15:19;102692.90;;;11.06;65.38
59873;BME280;50750;51.636;4.948;2023-02-03T06:17:46;102695.01;;;11.06;65.10
59873;BME280;50750;51.636;4.948;2023-02-03T06:20:14;102695.89;;;11.07;65.07
59873;BME280;50750;51.636;4.948;2023-02-03T06:22:40;102700.09;;;11.06;65.19
59873;BME280;50750;51.636;4.948;2023-02-03T06:25:07;102705.70;;;11.07;65.14
59873;BME280;50750;51.636;4.948;2023-02-03T06:27:33;102703.07;;;11.07;65.23
59873;BME280;50750;51.636;4.948;2023-02-03T06:29:59;102705.17;;;11.07;65.31
59873;BME280;50750;51.636;4.948;2023-02-03T06:32:25;102693.42;;;11.06;65.26
59873;BME280;50750;51.636;4.948;2023-02-03T06:34:51;102684.48;;;11.06;65.27
59873;BME280;50750;51.636;4.948;2023-02-03T06:37:17;102685.38;;;11.05;65.26
59873;BME280;50750;51.636;4.948;2023-02-03T06:39:43;102700.29;;;11.04;65.30
59873;BME280;50750;51.636;4.948;2023-02-03T06:42:09;102707.46;;;11.05;65.18
59873;BME280;50750;51.636;4.948;2023-02-03T06:44:35;102707.63;;;11.06;65.21
59873;BME280;50750;51.636;4.948;2023-02-03T06:47:00;102692.02;;;11.06;65.38
59873;BME280;50750;51.636;4.948;2023-02-03T06:49:28;102689.58;;;11.07;65.25
59873;BME280;50750;51.636;4.948;2023-02-03T06:51:55;102688.36;;;11.08;65.32
59873;BME280;50750;51.636;4.948;2023-02-03T06:54:21;102685.55;;;11.08;65.38
59873;BME280;50750;51.636;4.948;2023-02-03T06:56:46;102676.25;;;11.07;65.43
59873;BME280;50750;51.636;4.948;2023-02-03T06:59:12;102679.06;;;11.07;65.36
59873;BME280;50750;51.636;4.948;2023-02-03T07:01:38;102683.97;;;11.07;65.37
59873;BME280;50750;51.636;4.948;2023-02-03T07:04:04;102694.48;;;11.07;65.41
59873;BME280;50750;51.636;4.948;2023-02-03T07:06:31;102703.60;;;11.06;65.48
59873;BME280;50750;51.636;4.948;2023-02-03T07:09:02;102710.44;;;11.06;65.38
59873;BME280;50750;51.636;4.948;2023-02-03T07:11:29;102717.27;;;11.05;65.36
59873;BME280;50750;51.636;4.948;2023-02-03T07:13:56;102713.41;;;11.06;65.35
59873;BME280;50750;51.636;4.948;2023-02-03T07:16:22;102714.30;;;11.06;65.42
59873;BME280;50750;51.636;4.948;2023-02-03T07:18:48;102713.25;;;11.08;65.38
59873;BME280;50750;51.636;4.948;2023-02-03T07:21:16;102723.75;;;11.09;65.36
59873;BME280;50750;51.636;4.948;2023-02-03T07:23:42;102735.33;;;11.09;65.27
59873;BME280;50750;51.636;4.948;2023-02-03T07:26:09;102740.94;;;11.09;65.44
59873;BME280;50750;51.636;4.948;2023-02-03T07:28:35;102733.58;;;11.10;65.21
59873;BME280;50750;51.636;4.948;2023-02-03T07:31:02;102729.02;;;11.10;65.22
59873;BME280;50750;51.636;4.948;2023-02-03T07:33:35;102730.77;;;11.10;65.13
59873;BME280;50750;51.636;4.948;2023-02-03T07:36:02;102740.23;;;11.10;65.32
59873;BME280;50750;51.636;4.948;2023-02-03T07:38:28;102739.02;;;11.10;65.27
59873;BME280;50750;51.636;4.948;2023-02-03T07:40:55;102735.15;;;11.10;65.24
59873;BME280;50750;51.636;4.948;2023-02-03T07:43:21;102746.73;;;11.10;65.30
59873;BME280;50750;51.636;4.948;2023-02-03T07:45:47;102750.59;;;11.09;65.16
59873;BME280;50750;51.636;4.948;2023-02-03T07:48:13;102741.99;;;11.10;65.23
59873;BME280;50750;51.636;4.948;2023-02-03T07:50:39;102743.75;;;11.10;65.29
59873;BME280;50750;51.636;4.948;2023-02-03T07:53:06;102746.02;;;11.10;65.27
59873;BME280;50750;51.636;4.948;2023-02-03T07:55:38;102751.63;;;11.11;65.23
59873;BME280;50750;51.636;4.948;2023-02-03T07:58:05;102754.25;;;11.11;65.21
59873;BME280;50750;51.636;4.948;2023-02-03T08:00:31;102742.85;;;11.11;65.26
59873;BME280;50750;51.636;4.948;2023-02-03T08:02:57;102751.63;;;11.11;65.19
59873;BME280;50750;51.636;4.948;2023-02-03T08:05:24;102755.13;;;11.11;65.16
59873;BME280;50750;51.636;4.948;2023-02-03T08:07:50;102751.80;;;11.11;65.09
59873;BME280;50750;51.636;4.948;2023-02-03T08:10:16;102761.45;;;11.11;65.17
59873;BME280;50750;51.636;4.948;2023-02-03T08:12:42;102761.27;;;11.11;65.25
59873;BME280;50750;51.636;4.948;2023-02-03T08:15:09;102760.74;;;11.11;65.08
59873;BME280;50750;51.636;4.948;2023-02-03T08:17:35;102761.44;;;11.11;65.27
59873;BME280;50750;51.636;4.948;2023-02-03T08:20:06;102768.47;;;11.10;65.24
59873;BME280;50750;51.636;4.948;2023-02-03T08:22:32;102771.63;;;11.10;65.21
59873;BME280;50750;51.636;4.948;2023-02-03T08:24:58;102760.75;;;11.10;65.18
59873;BME280;50750;51.636;4.948;2023-02-03T08:27:24;102767.59;;;11.10;65.07
59873;BME280;50750;51.636;4.948;2023-02-03T08:29:50;102766.17;;;11.11;65.13
59873;BME280;50750;51.636;4.948;2023-02-03T08:32:19;102760.91;;;11.11;65.24
59873;BME280;50750;51.636;4.948;2023-02-03T08:34:46;102766.70;;;11.13;65.29
59873;BME280;50750;51.636;4.948;2023-02-03T08:37:14;102780.73;;;11.13;65.28
59873;BME280;50750;51.636;4.948;2023-02-03T08:39:40;102787.39;;;11.13;65.14
59873;BME280;50750;51.636;4.948;2023-02-03T08:42:06;102802.83;;;11.12;65.05
59873;BME280;50750;51.636;4.948;2023-02-03T08:44:33;102808.78;;;11.12;65.20
59873;BME280;50750;51.636;4.948;2023-02-03T08:46:59;102813.34;;;11.12;65.26
59873;BME280;50750;51.636;4.948;2023-02-03T08:49:27;102807.54;;;11.12;65.33
59873;BME280;50750;51.636;4.948;2023-02-03T08:51:55;102809.66;;;11.11;65.41
59873;BME280;50750;51.636;4.948;2023-02-03T08:54:22;102816.67;;;11.11;65.46
59873;BME280;50750;51.636;4.948;2023-02-03T08:56:48;102815.98;;;11.10;65.50
59873;BME280;50750;51.636;4.948;2023-02-03T08:59:14;102811.77;;;11.11;65.52
59873;BME280;50750;51.636;4.948;2023-02-03T09:01:41;102819.46;;;11.12;65.46
59873;BME280;50750;51.636;4.948;2023-02-03T09:04:10;102818.95;;;11.13;65.52
59873;BME280;50750;51.636;4.948;2023-02-03T09:06:37;102821.77;;;11.13;65.45
59873;BME280;50750;51.636;4.948;2023-02-03T09:09:03;102814.57;;;11.13;65.52
59873;BME280;50750;51.636;4.948;2023-02-03T09:11:29;102820.00;;;11.13;65.47
59873;BME280;50750;51.636;4.948;2023-02-03T09:13:55;102814.92;;;11.13;65.50
59873;BME280;50750;51.636;4.948;2023-02-03T09:16:23;102820.17;;;11.13;65.44
59873;BME280;50750;51.636;4.948;2023-02-03T09:18:50;102822.98;;;11.13;65.33
59873;BME280;50750;51.636;4.948;2023-02-03T09:21:17;102819.30;;;11.13;65.36
59873;BME280;50750;51.636;4.948;2023-02-03T09:23:43;102816.32;;;11.13;65.49
59873;BME280;50750;51.636;4.948;2023-02-03T09:26:12;102820.17;;;11.12;65.49
59873;BME280;50750;51.636;4.948;2023-02-03T09:28:38;102825.78;;;11.12;65.41
59873;BME280;50750;51.636;4.948;2023-02-03T09:31:06;102827.19;;;11.12;65.62
59873;BME280;50750;51.636;4.948;2023-02-03T09:33:33;102830.69;;;11.12;65.49
59873;BME280;50750;51.636;4.948;2023-02-03T09:35:59;102839.48;;;11.13;65.52
59873;BME280;50750;51.636;4.948;2023-02-03T09:38:26;102846.83;;;11.14;65.44
59873;BME280;50750;51.636;4.948;2023-02-03T09:40:58;102844.02;;;11.14;65.42
59873;BME280;50750;51.636;4.948;2023-02-03T09:46:08;102852.79;;;11.15;65.26
59873;BME280;50750;51.636;4.948;2023-02-03T09:48:41;102859.80;;;11.15;65.22
59873;BME280;50750;51.636;4.948;2023-02-03T09:51:18;102858.06;;;11.15;65.35
59873;BME280;50750;51.636;4.948;2023-02-03T09:54:00;102858.39;;;11.16;65.26
59873;BME280;50750;51.636;4.948;2023-02-03T09:56:33;102852.63;;;11.15;65.32
59873;BME280;50750;51.636;4.948;2023-02-03T09:59:00;102849.28;;;11.16;65.34
59873;BME280;50750;51.636;4.948;2023-02-03T10:04:34;102856.47;;;11.15;65.40
59873;BME280;50750;51.636;4.948;2023-02-03T10:07:32;102856.46;;;11.15;65.34
59873;BME280;50750;51.636;4.948;2023-02-03T10:10:29;102851.91;;;11.15;65.33
59873;BME280;50750;51.636;4.948;2023-02-03T10:13:26;102847.52;;;11.16;65.40
59873;BME280;50750;51.636;4.948;2023-02-03T10:18:47;102851.05;;;11.18;65.32
59873;BME280;50750;51.636;4.948;2023-02-03T10:23:44;102868.39;;;11.19;65.35
59873;BME280;50750;51.636;4.948;2023-02-03T10:26:24;102872.41;;;11.19;65.21
59873;BME280;50750;51.636;4.948;2023-02-03T10:28:56;102870.33;;;11.20;65.22
59873;BME280;50750;51.636;4.948;2023-02-03T10:31:27;102875.41;;;11.20;65.29
59873;BME280;50750;51.636;4.948;2023-02-03T10:33:59;102872.95;;;11.20;65.37
59873;BME280;50750;51.636;4.948;2023-02-03T10:41:36;102878.39;;;11.19;65.34
59873;BME280;50750;51.636;4.948;2023-02-03T10:44:07;102878.21;;;11.18;65.37
59873;BME280;50750;51.636;4.948;2023-02-03T10:46:38;102882.25;;;11.19;65.26
59873;BME280;50750;51.636;4.948;2023-02-03T10:49:05;102883.12;;;11.19;65.32
59873;BME280;50750;51.636;4.948;2023-02-03T10:51:36;102877.85;;;11.19;65.35
59873;BME280;50750;51.636;4.948;2023-02-03T10:54:02;102880.84;;;11.20;65.33
59873;BME280;50750;51.636;4.948;2023-02-03T10:56:35;102873.30;;;11.21;65.40
59873;BME280;50750;51.636;4.948;2023-02-03T10:59:02;102886.64;;;11.21;65.41
59873;BME280;50750;51.636;4.948;2023-02-03T11:01:46;102887.33;;;11.22;65.39
59873;BME280;50750;51.636;4.948;2023-02-03T11:04:28;102892.40;;;11.22;65.35
59873;BME280;50750;51.636;4.948;2023-02-03T11:07:01;102895.38;;;11.23;65.42
59873;BME280;50750;51.636;4.948;2023-02-03T11:09:31;102898.54;;;11.22;65.50
59873;BME280;50750;51.636;4.948;2023-02-03T11:12:19;102902.40;;;11.22;65.30
59873;BME280;50750;51.636;4.948;2023-02-03T11:14:50;102905.38;;;11.23;65.36
59873;BME280;50750;51.636;4.948;2023-02-03T11:17:19;102905.55;;;11.22;65.43
59873;BME280;50750;51.636;4.948;2023-02-03T11:19:49;102902.59;;;11.21;65.44
59873;BME280;50750;51.636;4.948;2023-02-03T11:22:46;102898.20;;;11.22;65.53
59873;BME280;50750;51.636;4.948;2023-02-03T11:25:19;102898.89;;;11.22;65.43
59873;BME280;50750;51.636;4.948;2023-02-03T11:27:45;102899.08;;;11.23;65.53
59873;BME280;50750;51.636;4.948;2023-02-03T11:30:22;102888.38;;;11.24;65.41
59873;BME280;50750;51.636;4.948;2023-02-03T11:32:50;102880.14;;;11.24;65.55
59873;BME280;50750;51.636;4.948;2023-02-03T11:35:22;102883.64;;;11.25;65.47
59873;BME280;50750;51.636;4.948;2023-02-03T11:37:51;102886.62;;;11.25;65.54
59873;BME280;50750;51.636;4.948;2023-02-03T11:40:26;102885.05;;;11.26;65.44
59873;BME280;50750;51.636;4.948;2023-02-03T11:45:26;102884.36;;;11.26;65.42
59873;BME280;50750;51.636;4.948;2023-02-03T11:48:01;102889.96;;;11.27;65.51
59873;BME280;50750;51.636;4.948;2023-02-03T11:53:14;102891.02;;;11.26;65.48
59873;BME280;50750;51.636;4.948;2023-02-03T11:56:34;102891.02;;;11.26;65.40
59873;BME280;50750;51.636;4.948;2023-02-03T12:08:17;102868.39;;;11.26;65.49
59873;BME280;50750;51.636;4.948;2023-02-03T12:16:13;102869.27;;;11.28;65.54
59873;BME280;50750;51.636;4.948;2023-02-03T12:19:09;102871.72;;;11.30;65.56
59873;BME280;50750;51.636;4.948;2023-02-03T12:24:43;102881.36;;;11.30;65.54
59873;BME280;50750;51.636;4.948;2023-02-03T12:27:29;102882.95;;;11.31;65.61
59873;BME280;50750;51.636;4.948;2023-02-03T12:30:09;102880.84;;;11.30;65.51
59873;BME280;50750;51.636;4.948;2023-02-03T12:32:41;102884.00;;;11.30;65.54
59873;BME280;50750;51.636;4.948;2023-02-03T12:35:19;102884.16;;;11.30;65.64
59873;BME280;50750;51.636;4.948;2023-02-03T12:38:05;102884.00;;;11.29;65.67
59873;BME280;50750;51.636;4.948;2023-02-03T12:40:49;102882.25;;;11.29;65.64
59873;BME280;50750;51.636;4.948;2023-02-03T12:43:29;102892.94;;;11.30;65.73
59873;BME280;50750;51.636;4.948;2023-02-03T12:46:10;102893.81;;;11.31;65.75
59873;BME280;50750;51.636;4.948;2023-02-03T12:49:08;102893.64;;;11.32;65.61
59873;BME280;50750;51.636;4.948;2023-02-03T12:52:20;102899.23;;;11.34;65.58
59873;BME280;50750;51.636;4.948;2023-02-03T12:57:39;102903.98;;;11.35;65.58
59873;BME280;50750;51.636;4.948;2023-02-03T13:06:01;102903.10;;;11.36;65.58
59873;BME280;50750;51.636;4.948;2023-02-03T13:11:40;102910.11;;;11.36;65.68
59873;BME280;50750;51.636;4.948;2023-02-03T13:14:47;102915.73;;;11.36;65.60
59873;BME280;50750;51.636;4.948;2023-02-03T13:17:19;102914.16;;;11.35;65.72
59873;BME280;50750;51.636;4.948;2023-02-03T13:20:15;102916.25;;;11.36;65.68
59873;BME280;50750;51.636;4.948;2023-02-03T13:22:43;102912.39;;;11.36;65.57
59873;BME280;50750;51.636;4.948;2023-02-03T13:39:31;102938.36;;;11.40;65.53
59873;BME280;50750;51.636;4.948;2023-02-03T13:42:27;102929.06;;;11.40;65.64
59873;BME280;50750;51.636;4.948;2023-02-03T13:44:58;102934.15;;;11.40;65.60
59873;BME280;50750;51.636;4.948;2023-02-03T13:47:29;102938.89;;;11.40;65.65
59873;BME280;50750;51.636;4.948;2023-02-03T13:50:02;102941.52;;;11.39;65.64
59873;BME280;50750;51.636;4.948;2023-02-03T13:52:37;102939.06;;;11.39;65.76
59873;BME280;50750;51.636;4.948;2023-02-03T13:55:07;102937.99;;;11.38;65.79
59873;BME280;50750;51.636;4.948;2023-02-03T13:57:50;102942.05;;;11.39;65.62
59873;BME280;50750;51.636;4.948;2023-02-03T14:03:20;102937.31;;;11.40;65.74
59873;BME280;50750;51.636;4.948;2023-02-03T14:06:10;102941.70;;;11.41;65.82
59873;BME280;50750;51.636;4.948;2023-02-03T14:08:58;102942.23;;;11.41;65.75
59873;BME280;50750;51.636;4.948;2023-02-03T14:16:33;102940.83;;;11.42;65.60
59873;BME280;50750;51.636;4.948;2023-02-03T14:18:59;102945.02;;;11.43;65.73
59873;BME280;50750;51.636;4.948;2023-02-03T14:21:28;102940.30;;;11.42;65.77
59873;BME280;50750;51.636;4.948;2023-02-03T14:24:05;102948.73;;;11.42;65.73
59873;BME280;50750;51.636;4.948;2023-02-03T14:26:37;102952.05;;;11.42;65.71
59873;BME280;50750;51.636;4.948;2023-02-03T14:29:05;102952.58;;;11.42;65.71
59873;BME280;50750;51.636;4.948;2023-02-03T14:31:31;102955.20;;;11.42;65.77
59873;BME280;50750;51.636;4.948;2023-02-03T14:34:16;102954.15;;;11.43;65.74
59873;BME280;50750;51.636;4.948;2023-02-03T14:36:45;102959.05;;;11.44;65.78
59873;BME280;50750;51.636;4.948;2023-02-03T14:39:21;102961.52;;;11.45;65.83
59873;BME280;50750;51.636;4.948;2023-02-03T14:47:56;102961.52;;;11.46;65.64
59873;BME280;50750;51.636;4.948;2023-02-03T14:51:15;102963.27;;;11.46;65.74